NCAR-RAP Real-Time Weather Data

Output produced by METARs form (26 September 2017  14:30 UTC)
found at http://weather.rap.ucar.edu/surface/
 
Conditions at: KGIF observed 26 September 2017  13:53 UTC
Temperature: 27.8°C (82°F)
Dewpoint: 20.6°C (69°F) [RH = 65%]
Pressure (altimeter): 29.96 inches Hg (1014.6 mb)
[Sea-level pressure: 1014.3 mb]
Winds: from the E (100 degrees) at 6 MPH (5 knots; 2.6 m/s)
Visibility: 10 or more miles (16+ km)
Ceiling: at least 12,000 feet AGL
Clouds: sky clear below 12,000 feet AGL
Present Weather: automated observation with no human augmentation;
there may or may not be significant weather present at this time
KGIF 261353Z AUTO 10005KT 10SM CLR 28/21 A2996 RMK AO2 SLP143 T02780206

Conditions at: KGIF observed 26 September 2017  12:53 UTC
Temperature: 26.1°C (79°F)
Dewpoint: 22.8°C (73°F) [RH = 82%]
Pressure (altimeter): 29.95 inches Hg (1014.3 mb)
[Sea-level pressure: 1013.9 mb]
Winds: calm
Visibility: 10 or more miles (16+ km)
Ceiling: at least 12,000 feet AGL
Clouds: sky clear below 12,000 feet AGL
Present Weather: automated observation with no human augmentation;
there may or may not be significant weather present at this time
KGIF 261253Z AUTO 00000KT 10SM CLR 26/23 A2995 RMK AO2 SLP139 T02610228

Conditions at: KGIF observed 26 September 2017  11:53 UTC
Temperature: 23.9°C (75°F)
Dewpoint: 22.2°C (72°F) [RH = 90%]
Pressure (altimeter): 29.93 inches Hg (1013.6 mb)
[Sea-level pressure: 1013.3 mb]
Winds: from the NE (50 degrees) at 3 MPH (3 knots; 1.6 m/s)
Visibility: 10 or more miles (16+ km)
Ceiling: at least 12,000 feet AGL
Clouds: sky clear below 12,000 feet AGL
Present Weather: automated observation with no human augmentation;
there may or may not be significant weather present at this time
KGIF 261153Z AUTO 05003KT 10SM CLR 24/22 A2993 RMK AO2 SLP133 7//// T02390222 10261 20239 53016

Conditions at: KGIF observed 26 September 2017  10:53 UTC
Temperature: 23.9°C (75°F)
Dewpoint: 22.2°C (72°F) [RH = 90%]
Pressure (altimeter): 29.91 inches Hg (1013.0 mb)
[Sea-level pressure: 1012.6 mb]
Winds: from the ENE (60 degrees) at 3 MPH (3 knots; 1.6 m/s)
Visibility: 10 or more miles (16+ km)
Ceiling: at least 12,000 feet AGL
Clouds: sky clear below 12,000 feet AGL
Present Weather: automated observation with no human augmentation;
there may or may not be significant weather present at this time
KGIF 261053Z AUTO 06003KT 10SM CLR 24/22 A2991 RMK AO2 SLP126 T02390222

Conditions at: KGIF observed 26 September 2017  09:53 UTC
Temperature: 24.4°C (76°F)
Dewpoint: 22.2°C (72°F) [RH = 88%]
Pressure (altimeter): 29.89 inches Hg (1012.3 mb)
[Sea-level pressure: 1012.1 mb]
Winds: from the NE (40 degrees) at 3 MPH (3 knots; 1.6 m/s)
Visibility: 10 or more miles (16+ km)
Ceiling: at least 12,000 feet AGL
Clouds: sky clear below 12,000 feet AGL
Present Weather: automated observation with no human augmentation;
there may or may not be significant weather present at this time
KGIF 260953Z AUTO 04003KT 10SM CLR 24/22 A2989 RMK AO2 SLP121 T02440222

Conditions at: KGIF observed 26 September 2017  08:53 UTC
Temperature: 24.4°C (76°F)
Dewpoint: 22.2°C (72°F) [RH = 88%]
Pressure (altimeter): 29.89 inches Hg (1012.3 mb)
[Sea-level pressure: 1011.7 mb]
Winds: calm
Visibility: 10 or more miles (16+ km)
Ceiling: at least 12,000 feet AGL
Clouds: sky clear below 12,000 feet AGL
Present Weather: automated observation with no human augmentation;
there may or may not be significant weather present at this time
KGIF 260853Z AUTO 00000KT 10SM CLR 24/22 A2989 RMK AO2 SLP117 T02440222 56005

Conditions at: KGIF observed 26 September 2017  07:53 UTC
Temperature: 25.0°C (77°F)
Dewpoint: 22.2°C (72°F) [RH = 84%]
Pressure (altimeter): 29.89 inches Hg (1012.3 mb)
[Sea-level pressure: 1011.9 mb]
Winds: calm
Visibility: 10 or more miles (16+ km)
Ceiling: at least 12,000 feet AGL
Clouds: sky clear below 12,000 feet AGL
Present Weather: automated observation with no human augmentation;
there may or may not be significant weather present at this time
KGIF 260753Z AUTO 00000KT 10SM CLR 25/22 A2989 RMK AO2 SLP119 T02500222

Conditions at: KGIF observed 26 September 2017  06:53 UTC
Temperature: 25.6°C (78°F)
Dewpoint: 22.2°C (72°F) [RH = 82%]
Pressure (altimeter): 29.89 inches Hg (1012.3 mb)
[Sea-level pressure: 1011.8 mb]
Winds: from the E (90 degrees) at 3 MPH (3 knots; 1.6 m/s)
Visibility: 10 or more miles (16+ km)
Ceiling: at least 12,000 feet AGL
Clouds: few clouds at 8500 feet AGL
Present Weather: automated observation with no human augmentation;
there may or may not be significant weather present at this time
KGIF 260653Z AUTO 09003KT 10SM FEW085 26/22 A2989 RMK AO2 SLP118 T02560222

Conditions at: KGIF observed 26 September 2017  05:53 UTC
Temperature: 25.6°C (78°F)
Dewpoint: 22.2°C (72°F) [RH = 82%]
Pressure (altimeter): 29.90 inches Hg (1012.6 mb)
[Sea-level pressure: 1012.2 mb]
Winds: from the ENE (70 degrees) at 7 MPH (6 knots; 3.1 m/s)
Visibility: 10 or more miles (16+ km)
Ceiling: 8000 feet AGL
Clouds: overcast cloud deck at 8000 feet AGL
Present Weather: automated observation with no human augmentation;
there may or may not be significant weather present at this time
KGIF 260553Z AUTO 07006KT 10SM OVC080 26/22 A2990 RMK AO2 SLP122 T02560222 10300 20256 58003

Conditions at: KGIF observed 26 September 2017  04:53 UTC
Temperature: 26.1°C (79°F)
Dewpoint: 22.8°C (73°F) [RH = 82%]
Pressure (altimeter): 29.91 inches Hg (1013.0 mb)
[Sea-level pressure: 1012.3 mb]
Winds: from the SE (140 degrees) at 3 MPH (3 knots; 1.6 m/s)
Visibility: 10 or more miles (16+ km)
Ceiling: 8000 feet AGL
Clouds: few clouds at 5500 feet AGL
broken clouds at 8000 feet AGL
Present Weather: automated observation with no human augmentation;
there may or may not be significant weather present at this time
KGIF 260453Z AUTO 14003KT 10SM FEW055 BKN080 26/23 A2991 RMK AO2 SLP123 T02610228 403330239

Conditions at: KGIF observed 26 September 2017  03:53 UTC
Temperature: 26.1°C (79°F)
Dewpoint: 22.8°C (73°F) [RH = 82%]
Pressure (altimeter): 29.91 inches Hg (1013.0 mb)
[Sea-level pressure: 1012.6 mb]
Winds: from the E (90 degrees) at 5 MPH (4 knots; 2.1 m/s)
Visibility: 10 or more miles (16+ km)
Ceiling: 5000 feet AGL
Clouds: broken clouds at 5000 feet AGL
broken clouds at 7000 feet AGL
Present Weather: automated observation with no human augmentation;
there may or may not be significant weather present at this time
KGIF 260353Z AUTO 09004KT 10SM BKN050 BKN070 26/23 A2991 RMK AO2 SLP126 T02610228

Conditions at: KGIF observed 26 September 2017  02:53 UTC
Temperature: 27.2°C (81°F)
Dewpoint: 22.8°C (73°F) [RH = 77%]
Pressure (altimeter): 29.91 inches Hg (1013.0 mb)
[Sea-level pressure: 1012.6 mb]
Winds: from the E (80 degrees) at 7 MPH (6 knots; 3.1 m/s)
Visibility: 10 or more miles (16+ km)
Ceiling: 5500 feet AGL
Clouds: broken clouds at 5500 feet AGL
Present Weather: automated observation with no human augmentation;
there may or may not be significant weather present at this time
KGIF 260253Z AUTO 08006KT 10SM BKN055 27/23 A2991 RMK AO2 SLP126 T02720228 51020

Conditions at: KGIF observed 26 September 2017  01:53 UTC
Temperature: 27.8°C (82°F)
Dewpoint: 20.0°C (68°F) [RH = 63%]
Pressure (altimeter): 29.90 inches Hg (1012.6 mb)
[Sea-level pressure: 1012.1 mb]
Winds: from the NW (320 degrees) at 7 MPH (6 knots; 3.1 m/s)
Visibility: 10 or more miles (16+ km)
Ceiling: 6000 feet AGL
Clouds: broken clouds at 6000 feet AGL
Present Weather: automated observation with no human augmentation;
there may or may not be significant weather present at this time
KGIF 260153Z AUTO 32006KT 10SM BKN060 28/20 A2990 RMK AO2 SLP121 T02780200

Conditions at: KGIF observed 26 September 2017  00:53 UTC
Temperature: 28.9°C (84°F)
Dewpoint: 21.1°C (70°F) [RH = 63%]
Pressure (altimeter): 29.87 inches Hg (1011.6 mb)
[Sea-level pressure: 1011.4 mb]
Winds: from the NW (320 degrees) at 5 MPH (4 knots; 2.1 m/s)
Visibility: 10 or more miles (16+ km)
Ceiling: 8000 feet AGL
Clouds: scattered clouds at 5500 feet AGL
overcast cloud deck at 8000 feet AGL
Present Weather: automated observation with no human augmentation;
there may or may not be significant weather present at this time
KGIF 260053Z AUTO 32004KT 10SM SCT055 OVC080 29/21 A2987 RMK AO2 SLP114 T02890211

Conditions at: KGIF observed 25 September 2017  23:53 UTC
Temperature: 30.0°C (86°F)
Dewpoint: 21.1°C (70°F) [RH = 59%]
Pressure (altimeter): 29.85 inches Hg (1010.9 mb)
[Sea-level pressure: 1010.6 mb]
Winds: calm
Visibility: 10 or more miles (16+ km)
Ceiling: 6000 feet AGL
Clouds: overcast cloud deck at 6000 feet AGL
Present Weather: automated observation with no human augmentation;
there may or may not be significant weather present at this time
KGIF 252353Z AUTO 00000KT 10SM OVC060 30/21 A2985 RMK AO2 SLP106 T03000211 10333 20294 53006

Conditions at: KGIF observed 25 September 2017  22:53 UTC
Temperature: 30.6°C (87°F)
Dewpoint: 20.0°C (68°F) [RH = 53%]
Pressure (altimeter): 29.84 inches Hg (1010.6 mb)
[Sea-level pressure: 1010.3 mb]
Winds: from the N (10 degrees) at 3 MPH (3 knots; 1.6 m/s)
Visibility: 10 or more miles (16+ km)
Ceiling: at least 12,000 feet AGL
Clouds: scattered clouds at 5500 feet AGL
Present Weather: automated observation with no human augmentation;
there may or may not be significant weather present at this time
KGIF 252253Z AUTO 01003KT 10SM SCT055 31/20 A2984 RMK AO2 SLP103 T03060200

Conditions at: KGIF observed 25 September 2017  21:53 UTC
Temperature: 31.7°C (89°F)
Dewpoint: 20.0°C (68°F) [RH = 50%]
Pressure (altimeter): 29.83 inches Hg (1010.2 mb)
[Sea-level pressure: 1010.0 mb]
Winds: from the N (360 degrees) at 7 MPH (6 knots; 3.1 m/s)
Visibility: 10 or more miles (16+ km)
Ceiling: at least 12,000 feet AGL
Clouds: scattered clouds at 5000 feet AGL
Present Weather: automated observation with no human augmentation;
there may or may not be significant weather present at this time
KGIF 252153Z AUTO 36006KT 10SM SCT050 32/20 A2983 RMK AO2 SLP100 T03170200

Conditions at: KGIF observed 25 September 2017  20:53 UTC
Temperature: 32.8°C (91°F)
Dewpoint: 20.0°C (68°F) [RH = 47%]
Pressure (altimeter): 29.83 inches Hg (1010.2 mb)
[Sea-level pressure: 1010.0 mb]
Winds: from the N (10 degrees) at 3 MPH (3 knots; 1.6 m/s)
Visibility: 10 or more miles (16+ km)
Ceiling: at least 12,000 feet AGL
Clouds: few clouds at 4900 feet AGL
Present Weather: automated observation with no human augmentation;
there may or may not be significant weather present at this time
KGIF 252053Z AUTO 01003KT 10SM FEW049 33/20 A2983 RMK AO2 SLP100 T03280200 56020

Conditions at: KGIF observed 25 September 2017  19:53 UTC
Temperature: 31.7°C (89°F)
Dewpoint: 20.0°C (68°F) [RH = 50%]
Pressure (altimeter): 29.85 inches Hg (1010.9 mb)
[Sea-level pressure: 1010.5 mb]
Winds: from the WSW (250 degrees) at 3 MPH (3 knots; 1.6 m/s)
Visibility: 10 or more miles (16+ km)
Ceiling: at least 12,000 feet AGL
Clouds: few clouds at 4900 feet AGL
scattered clouds at 6000 feet AGL
Present Weather: automated observation with no human augmentation;
there may or may not be significant weather present at this time
KGIF 251953Z AUTO 25003KT 10SM FEW049 SCT060 32/20 A2985 RMK AO2 SLP105 T03170200

Conditions at: KGIF observed 25 September 2017  18:53 UTC
Temperature: 32.2°C (90°F)
Dewpoint: 20.0°C (68°F) [RH = 49%]
Pressure (altimeter): 29.87 inches Hg (1011.6 mb)
[Sea-level pressure: 1011.2 mb]
Winds: from the NW (320 degrees) at 6 MPH (5 knots; 2.6 m/s)
Visibility: 10 or more miles (16+ km)
Ceiling: at least 12,000 feet AGL
Clouds: few clouds at 4500 feet AGL
Present Weather: automated observation with no human augmentation;
there may or may not be significant weather present at this time
KGIF 251853Z AUTO 32005KT 10SM FEW045 32/20 A2987 RMK AO2 SLP112 T03220200

Conditions at: KGIF observed 25 September 2017  17:53 UTC
Temperature: 32.2°C (90°F)
Dewpoint: 20.6°C (69°F) [RH = 50%]
Pressure (altimeter): 29.89 inches Hg (1012.3 mb)
[Sea-level pressure: 1012.0 mb]
Winds: from the WNW (290 degrees) at 5 MPH (4 knots; 2.1 m/s)
Visibility: 10 or more miles (16+ km)
Ceiling: at least 12,000 feet AGL
Clouds: sky clear below 12,000 feet AGL
Present Weather: automated observation with no human augmentation;
there may or may not be significant weather present at this time
KGIF 251753Z AUTO 29004KT 10SM CLR 32/21 A2989 RMK AO2 SLP120 6//// T03220206 10322 20239 58015

Conditions at: KGIF observed 25 September 2017  16:53 UTC
Temperature: 31.1°C (88°F)
Dewpoint: 20.6°C (69°F) [RH = 54%]
Pressure (altimeter): 29.92 inches Hg (1013.3 mb)
[Sea-level pressure: 1013.0 mb]
Winds: from the N (350 degrees) at 5 MPH (4 knots; 2.1 m/s)
Visibility: 10 or more miles (16+ km)
Ceiling: at least 12,000 feet AGL
Clouds: sky clear below 12,000 feet AGL
Present Weather:
SOME DATA ABOVE MAY BE INACCURATE!!!
"$" is an indication the sensor requires maintenance
KGIF 251653Z AUTO 35004KT 10SM CLR 31/21 A2992 RMK AO2 SLP130 T03110206 $

Conditions at: KGIF observed 25 September 2017  15:53 UTC
Temperature: 30.6°C (87°F)
Dewpoint: 20.6°C (69°F) [RH = 55%]
Pressure (altimeter): 29.94 inches Hg (1014.0 mb)
[Sea-level pressure: 1013.5 mb]
Winds: from the NNE (30 degrees) at 3 MPH (3 knots; 1.6 m/s)
Visibility: 10 or more miles (16+ km)
Ceiling: at least 12,000 feet AGL
Clouds: sky clear below 12,000 feet AGL
Present Weather:
SOME DATA ABOVE MAY BE INACCURATE!!!
"$" is an indication the sensor requires maintenance
KGIF 251553Z AUTO 03003KT 10SM CLR 31/21 A2994 RMK AO2 SLP135 T03060206 $

Conditions at: KGIF observed 25 September 2017  15:21 UTC
Temperature: 29.4°C (85°F)
Dewpoint: 19.4°C (67°F) [RH = 55%]
Pressure (altimeter): 29.94 inches Hg (1014.0 mb)
Winds: variable direction winds at 5 MPH (4 knots; 2.1 m/s)
Visibility: 10 or more miles (16+ km)
Ceiling: at least 12,000 feet AGL
Clouds: few clouds at 300 feet AGL
Present Weather:
SOME DATA ABOVE MAY BE INACCURATE!!!
"$" is an indication the sensor requires maintenance
KGIF 251521Z AUTO VRB04KT 10SM FEW003 29/19 A2994 RMK AO2 T02940194 $

Conditions at: KGIF observed 25 September 2017  14:53 UTC
Temperature: 27.8°C (82°F)
Dewpoint: 21.1°C (70°F) [RH = 67%]
Pressure (altimeter): 29.94 inches Hg (1014.0 mb)
[Sea-level pressure: 1013.5 mb]
Winds: calm
Visibility: 10 or more miles (16+ km)
Ceiling: at least 12,000 feet AGL
Clouds: sky clear below 12,000 feet AGL
Present Weather: automated observation with no human augmentation;
there may or may not be significant weather present at this time
KGIF 251453Z AUTO 00000KT 10SM CLR 28/21 A2994 RMK AO2 SLP135 6//// T02780211 51006